createdAt,value
2023-01-20T00:01:39.389Z,63.54
2023-01-20T00:04:06.436Z,64.16
2023-01-20T00:06:33.453Z,63.82
2023-01-20T00:09:02.591Z,64.21
2023-01-20T00:11:30.177Z,64.08
2023-01-20T00:13:59.872Z,64.04
2023-01-20T00:16:27.425Z,63.87
2023-01-20T00:18:55.002Z,63.94
2023-01-20T00:21:22.456Z,63.79
2023-01-20T00:23:50.256Z,63.98
2023-01-20T00:26:21.140Z,63.98
2023-01-20T00:28:48.674Z,64.03
2023-01-20T00:31:22.776Z,64.08
2023-01-20T00:33:51.442Z,64.58
2023-01-20T00:36:20.739Z,64.31
2023-01-20T00:38:48.421Z,64.91
2023-01-20T00:41:15.749Z,64.51
2023-01-20T00:43:43.099Z,64.71
2023-01-20T00:46:10.497Z,64.60
2023-01-20T00:48:37.460Z,64.74
2023-01-20T00:51:05.807Z,64.40
2023-01-20T00:53:32.874Z,64.31
2023-01-20T00:56:00.067Z,64.54
2023-01-20T00:58:27.174Z,64.80
2023-01-20T01:00:56.041Z,64.23
2023-01-20T01:03:23.268Z,64.35
2023-01-20T01:05:50.315Z,64.49
2023-01-20T01:08:17.349Z,64.50
2023-01-20T01:10:44.142Z,64.54
2023-01-20T01:13:11.505Z,64.69
2023-01-20T01:15:38.314Z,65.04
2023-01-20T01:18:05.272Z,64.82
2023-01-20T01:20:32.226Z,65.25
2023-01-20T01:22:59.048Z,65.26
2023-01-20T01:25:25.935Z,65.18
2023-01-20T01:27:52.767Z,65.62
2023-01-20T01:30:19.723Z,65.88
2023-01-20T01:32:47.975Z,65.91
2023-01-20T01:35:15.208Z,65.89
2023-01-20T01:37:42.274Z,65.73
2023-01-20T01:40:10.347Z,65.67
2023-01-20T01:42:37.737Z,65.65
2023-01-20T01:45:10.664Z,65.62
2023-01-20T01:47:45.564Z,65.72
2023-01-20T01:50:19.661Z,65.77
2023-01-20T01:52:50.864Z,66.20
2023-01-20T01:55:19.598Z,66.15
2023-01-20T01:57:48.112Z,65.71
2023-01-20T02:00:15.339Z,65.73
2023-01-20T02:02:44.126Z,65.92
2023-01-20T02:05:13.851Z,65.74
2023-01-20T02:07:44.931Z,66.01
2023-01-20T02:10:13.141Z,66.14
2023-01-20T02:12:41.738Z,66.03
2023-01-20T02:15:09.497Z,65.58
2023-01-20T02:18:12.649Z,65.96
2023-01-20T02:21:21.908Z,66.27
2023-01-20T02:24:21.473Z,66.21
2023-01-20T02:27:05.147Z,66.02
2023-01-20T02:30:01.691Z,66.54
2023-01-20T02:32:50.604Z,66.76
2023-01-20T02:35:40.480Z,66.87
2023-01-20T02:38:28.505Z,66.81
2023-01-20T02:41:16.091Z,66.92
2023-01-20T02:44:23.101Z,66.72
2023-01-20T02:47:02.651Z,66.31
2023-01-20T02:50:04.264Z,66.65
2023-01-20T02:52:44.347Z,66.58
2023-01-20T02:55:22.418Z,66.60
2023-01-20T02:57:56.403Z,66.31
2023-01-20T03:00:55.804Z,66.39
2023-01-20T03:03:35.971Z,66.71
2023-01-20T03:06:10.041Z,66.60
2023-01-20T03:08:39.900Z,66.35
2023-01-20T03:11:09.205Z,66.26
2023-01-20T03:13:49.055Z,65.61
2023-01-20T03:16:22.913Z,65.42
2023-01-20T03:18:50.974Z,65.15
2023-01-20T03:21:18.507Z,65.20
2023-01-20T03:23:49.702Z,65.12
2023-01-20T03:26:19.275Z,65.29
2023-01-20T03:28:48.790Z,65.35
2023-01-20T03:31:31.079Z,65.29
2023-01-20T03:34:00.871Z,65.23
2023-01-20T03:36:30.199Z,65.37
2023-01-20T03:38:58.522Z,65.30
2023-01-20T03:41:51.383Z,65.56
2023-01-20T03:44:37.681Z,65.61
2023-01-20T03:47:17.606Z,65.68
2023-01-20T03:50:09.163Z,65.77
2023-01-20T03:52:54.252Z,65.65
2023-01-20T03:55:34.414Z,65.75
2023-01-20T03:58:15.741Z,65.94
2023-01-20T04:00:49.646Z,65.90
2023-01-20T04:03:27.154Z,66.02
2023-01-20T04:05:56.278Z,66.43
2023-01-20T04:08:26.763Z,66.30
2023-01-20T04:10:55.574Z,66.34
2023-01-20T04:13:22.422Z,66.58
2023-01-20T04:15:50.213Z,66.32
2023-01-20T04:18:24.214Z,66.44
2023-01-20T04:20:57.856Z,66.21
2023-01-20T04:23:28.631Z,65.47
2023-01-20T04:25:55.484Z,64.70
2023-01-20T04:28:22.395Z,64.57
2023-01-20T04:30:49.365Z,65.15
2023-01-20T04:33:16.307Z,65.29
2023-01-20T04:35:43.209Z,65.36
2023-01-20T04:38:10.075Z,65.83
2023-01-20T04:40:36.992Z,66.18
2023-01-20T04:43:04.085Z,66.31
2023-01-20T04:45:30.955Z,66.31
2023-01-20T04:47:57.860Z,66.14
2023-01-20T04:50:24.725Z,66.35
2023-01-20T04:52:55.750Z,66.52
2023-01-20T04:55:22.707Z,66.48
2023-01-20T04:57:49.543Z,66.50
2023-01-20T05:00:20.020Z,66.20
2023-01-20T05:02:47.656Z,66.61
2023-01-20T05:05:14.906Z,66.32
2023-01-20T05:07:41.926Z,66.38
2023-01-20T05:10:09.741Z,66.38
2023-01-20T05:12:36.575Z,66.32
2023-01-20T05:15:03.659Z,66.50
2023-01-20T05:17:30.640Z,66.17
2023-01-20T05:19:57.453Z,65.88
2023-01-20T05:22:24.358Z,65.81
2023-01-20T05:24:51.149Z,65.76
2023-01-20T05:27:18.020Z,65.72
2023-01-20T05:29:44.954Z,66.10
2023-01-20T05:32:11.897Z,66.26
2023-01-20T05:34:38.763Z,66.59
2023-01-20T05:37:05.650Z,66.43
2023-01-20T05:39:32.489Z,66.60
2023-01-20T05:41:59.278Z,66.83
2023-01-20T05:44:26.250Z,66.73
2023-01-20T05:46:53.245Z,67.04
2023-01-20T05:49:20.054Z,67.28
2023-01-20T05:51:46.838Z,66.76
2023-01-20T05:54:13.661Z,66.68
2023-01-20T05:56:40.493Z,66.52
2023-01-20T05:59:08.170Z,66.70
2023-01-20T06:01:34.968Z,66.67
2023-01-20T06:04:01.914Z,66.47
2023-01-20T06:06:28.795Z,66.42
2023-01-20T06:08:55.644Z,66.57
2023-01-20T06:11:22.728Z,66.64
2023-01-20T06:13:49.868Z,66.69
2023-01-20T06:16:18.379Z,66.54
2023-01-20T06:18:45.839Z,66.89
2023-01-20T06:21:12.788Z,66.52
2023-01-20T06:23:39.688Z,66.85
2023-01-20T06:26:13.487Z,66.57
2023-01-20T06:28:41.147Z,66.78
2023-01-20T06:31:15.592Z,66.46
2023-01-20T06:33:43.575Z,66.49
2023-01-20T06:36:13.779Z,66.45
2023-01-20T06:38:40.774Z,66.64
2023-01-20T06:41:14.931Z,66.67
2023-01-20T06:43:42.056Z,66.89
2023-01-20T06:46:13.026Z,66.90
2023-01-20T06:48:40.635Z,67.23
2023-01-20T06:51:13.142Z,67.38
2023-01-20T06:53:40.316Z,67.42
2023-01-20T06:56:09.198Z,67.18
2023-01-20T06:58:36.012Z,67.30
2023-01-20T07:01:28.410Z,67.20
2023-01-20T07:03:55.694Z,67.09
2023-01-20T07:06:40.517Z,66.72
2023-01-20T07:09:10.734Z,66.82
2023-01-20T07:11:37.826Z,66.95
2023-01-20T07:14:05.970Z,66.94
2023-01-20T07:16:33.567Z,66.74
2023-01-20T07:19:00.646Z,66.73
2023-01-20T07:21:28.158Z,66.96
2023-01-20T07:23:55.085Z,67.40
2023-01-20T07:26:26.273Z,67.24
2023-01-20T07:28:53.418Z,67.56
2023-01-20T07:31:26.883Z,67.99
2023-01-20T07:33:57.598Z,67.86
2023-01-20T07:36:25.006Z,67.87
2023-01-20T07:38:53.200Z,68.05
2023-01-20T07:41:21.359Z,67.82
2023-01-20T07:43:50.905Z,67.21
2023-01-20T07:46:18.599Z,67.07
2023-01-20T07:48:45.800Z,66.65
2023-01-20T07:51:15.248Z,66.28
2023-01-20T07:53:48.184Z,66.18
2023-01-20T07:56:25.635Z,65.45
2023-01-20T07:58:54.115Z,65.80
2023-01-20T08:01:27.975Z,65.20
2023-01-20T08:03:55.572Z,64.94
2023-01-20T08:06:24.986Z,64.14
2023-01-20T08:08:52.644Z,65.67
2023-01-20T08:11:22.270Z,66.40
2023-01-20T08:13:49.569Z,66.93
2023-01-20T08:16:18.624Z,67.09
2023-01-20T08:18:46.536Z,67.03
2023-01-20T08:21:30.713Z,66.22
2023-01-20T08:23:59.536Z,66.92
2023-01-20T08:26:29.445Z,65.85
2023-01-20T08:29:06.407Z,65.55
2023-01-20T08:31:33.600Z,65.84
2023-01-20T08:34:00.553Z,65.35
2023-01-20T08:36:34.907Z,65.67
2023-01-20T08:39:04.793Z,65.65
2023-01-20T08:41:36.198Z,63.46
2023-01-20T08:44:05.914Z,63.50
2023-01-20T08:46:33.451Z,63.26
2023-01-20T08:49:00.809Z,63.10
2023-01-20T08:51:31.812Z,64.24
2023-01-20T08:53:59.287Z,64.66
2023-01-20T08:56:26.948Z,63.90
2023-01-20T08:58:54.069Z,64.25
2023-01-20T09:01:28.738Z,63.54
2023-01-20T09:04:05.369Z,63.38
2023-01-20T09:06:46.389Z,63.46
2023-01-20T09:09:15.792Z,63.96
2023-01-20T09:11:50.518Z,62.95
2023-01-20T09:14:22.963Z,63.23
2023-01-20T09:16:50.643Z,64.15
2023-01-20T09:19:17.801Z,63.95
2023-01-20T09:21:44.897Z,63.22
2023-01-20T09:24:12.020Z,63.27
2023-01-20T09:26:39.056Z,62.88
2023-01-20T09:29:12.256Z,63.25
2023-01-20T09:31:59.030Z,64.35
2023-01-20T09:34:29.365Z,63.26
2023-01-20T09:37:19.650Z,63.08
2023-01-20T09:40:06.376Z,62.94
2023-01-20T09:43:23.965Z,62.44
2023-01-20T09:46:10.592Z,61.52
2023-01-20T09:49:07.357Z,60.31
2023-01-20T09:52:30.891Z,60.16
2023-01-20T09:55:07.882Z,60.26
2023-01-20T09:57:40.383Z,60.40
2023-01-20T10:00:20.460Z,61.00
2023-01-20T10:02:53.885Z,60.39
2023-01-20T10:05:26.939Z,60.61
2023-01-20T10:07:59.001Z,60.22
2023-01-20T10:10:40.990Z,60.65
2023-01-20T10:13:44.087Z,60.67
2023-01-20T10:16:18.801Z,61.20
2023-01-20T10:18:57.755Z,61.58
2023-01-20T10:22:05.147Z,62.12
2023-01-20T10:24:39.646Z,61.91
2023-01-20T10:27:06.511Z,61.11
2023-01-20T10:29:41.823Z,61.31
2023-01-20T10:32:23.723Z,61.42
2023-01-20T10:34:56.672Z,61.15
2023-01-20T10:37:24.475Z,63.06
2023-01-20T10:40:10.331Z,63.21
2023-01-20T10:42:37.145Z,63.45
2023-01-20T10:45:06.012Z,63.17
2023-01-20T10:47:55.791Z,62.80
2023-01-20T10:50:31.360Z,64.12
2023-01-20T10:53:30.266Z,64.59
2023-01-20T10:56:08.882Z,63.99
2023-01-20T10:58:40.925Z,65.06
2023-01-20T11:01:12.602Z,65.33
2023-01-20T11:03:45.597Z,66.64
2023-01-20T11:06:25.178Z,66.17
2023-01-20T11:08:52.712Z,66.61
2023-01-20T11:11:22.985Z,65.32
2023-01-20T11:13:51.822Z,66.88
2023-01-20T11:16:25.682Z,66.57
2023-01-20T11:19:06.053Z,66.83
2023-01-20T11:21:36.826Z,66.69
2023-01-20T11:24:31.878Z,65.75
2023-01-20T11:27:12.131Z,65.09
2023-01-20T11:29:49.986Z,64.33
2023-01-20T11:32:36.842Z,64.00
2023-01-20T11:35:21.242Z,65.08
2023-01-20T11:37:48.308Z,63.63
2023-01-20T11:40:29.123Z,63.57
2023-01-20T11:42:55.976Z,63.32
2023-01-20T11:45:34.641Z,63.20
2023-01-20T11:48:05.910Z,60.96
2023-01-20T11:50:37.332Z,61.63
2023-01-20T11:53:27.898Z,60.72
2023-01-20T11:55:58.753Z,60.44
2023-01-20T11:58:55.400Z,60.57
2023-01-20T12:01:58.179Z,61.81
2023-01-20T12:05:01.291Z,61.21
2023-01-20T12:07:45.029Z,61.58
2023-01-20T12:10:24.079Z,64.32
2023-01-20T12:13:05.945Z,65.83
2023-01-20T12:15:38.083Z,66.95
2023-01-20T12:18:19.512Z,65.70
2023-01-20T12:20:55.462Z,65.41
2023-01-20T12:23:46.073Z,64.56
2023-01-20T12:26:18.413Z,63.98
2023-01-20T12:29:19.485Z,64.13
2023-01-20T12:31:49.134Z,65.13
2023-01-20T12:34:38.924Z,65.03
2023-01-20T12:37:39.665Z,63.97
2023-01-20T12:40:42.216Z,64.59
2023-01-20T12:43:37.789Z,65.98
2023-01-20T12:46:56.813Z,65.59
2023-01-20T12:49:45.779Z,65.17
2023-01-20T12:53:05.524Z,65.52
2023-01-20T12:56:10.786Z,67.73
2023-01-20T12:59:23.874Z,67.54
2023-01-20T13:02:20.064Z,68.10
2023-01-20T13:05:17.032Z,67.69
2023-01-20T13:08:24.877Z,67.83
2023-01-20T13:11:43.589Z,66.68
2023-01-20T13:14:28.844Z,66.63
2023-01-20T13:17:18.683Z,66.57
2023-01-20T13:19:47.978Z,66.89
2023-01-20T13:22:23.062Z,66.84
2023-01-20T13:24:56.895Z,67.44
2023-01-20T13:27:34.741Z,66.30
2023-01-20T13:30:05.106Z,66.09
2023-01-20T13:32:37.925Z,65.64
2023-01-20T13:35:27.379Z,66.89
2023-01-20T13:38:00.138Z,66.57
2023-01-20T13:40:36.087Z,66.46
2023-01-20T13:43:04.276Z,66.69
2023-01-20T13:45:31.349Z,67.07
2023-01-20T13:48:06.985Z,67.11
2023-01-20T13:50:37.224Z,67.58
2023-01-20T13:53:09.934Z,66.58
2023-01-20T13:55:45.599Z,66.06
2023-01-20T13:58:22.279Z,66.23
2023-01-20T14:01:01.766Z,67.68
2023-01-20T14:03:38.147Z,67.91
2023-01-20T14:06:11.877Z,67.15
2023-01-20T14:08:50.766Z,67.56
2023-01-20T14:11:24.105Z,68.99
2023-01-20T14:13:59.038Z,68.41
2023-01-20T14:16:37.100Z,68.95
2023-01-20T14:19:34.221Z,68.26
2023-01-20T14:22:27.863Z,68.18
2023-01-20T14:25:00.785Z,68.97
2023-01-20T14:27:35.401Z,68.25
2023-01-20T14:30:26.590Z,68.23
2023-01-20T14:32:54.358Z,68.80
2023-01-20T14:35:33.606Z,68.90
2023-01-20T14:38:01.257Z,69.19
2023-01-20T14:40:35.337Z,68.90
2023-01-20T14:43:20.390Z,68.52
2023-01-20T14:45:51.515Z,68.80
2023-01-20T14:48:33.441Z,68.38
2023-01-20T14:51:04.142Z,69.16
2023-01-20T14:53:31.021Z,69.27
2023-01-20T14:56:09.705Z,69.31
2023-01-20T14:58:44.472Z,69.13
2023-01-20T15:01:22.709Z,69.58
2023-01-20T15:03:59.478Z,70.38
2023-01-20T15:06:26.841Z,71.85
2023-01-20T15:09:06.175Z,72.08
2023-01-20T15:11:34.334Z,71.82
2023-01-20T15:14:01.280Z,71.13
2023-01-20T15:16:37.006Z,70.97
2023-01-20T15:19:20.044Z,71.02
2023-01-20T15:21:51.169Z,70.83
2023-01-20T15:24:34.503Z,71.04
2023-01-20T15:27:02.718Z,71.33
2023-01-20T15:29:33.647Z,71.16
2023-01-20T15:32:08.787Z,71.10
2023-01-20T15:34:35.624Z,71.14
2023-01-20T15:37:02.551Z,71.09
2023-01-20T15:39:30.242Z,71.92
2023-01-20T15:41:58.145Z,71.57
2023-01-20T15:44:26.620Z,71.60
2023-01-20T15:46:57.368Z,71.68
2023-01-20T15:49:25.276Z,72.53
2023-01-20T15:51:52.613Z,71.97
2023-01-20T15:54:19.424Z,71.66
2023-01-20T15:56:46.286Z,71.98
2023-01-20T15:59:19.746Z,72.41
2023-01-20T16:01:50.368Z,72.27
2023-01-20T16:04:17.620Z,72.43
2023-01-20T16:06:44.874Z,72.21
2023-01-20T16:09:24.722Z,72.43
2023-01-20T16:11:52.035Z,72.33
2023-01-20T16:14:19.060Z,71.96
2023-01-20T16:16:45.913Z,72.32
2023-01-20T16:19:13.798Z,72.01
2023-01-20T16:21:41.355Z,71.86
2023-01-20T16:24:09.079Z,72.20
2023-01-20T16:26:36.084Z,71.62
2023-01-20T16:29:04.721Z,71.66
2023-01-20T16:31:33.317Z,71.56
2023-01-20T16:34:00.248Z,71.71
2023-01-20T16:36:27.103Z,71.77
2023-01-20T16:38:54.041Z,71.48
2023-01-20T16:41:27.977Z,71.87
2023-01-20T16:43:56.013Z,71.70
2023-01-20T16:46:32.697Z,71.86
2023-01-20T16:49:01.693Z,71.95
2023-01-20T16:51:30.343Z,71.90
2023-01-20T16:53:58.505Z,71.81
2023-01-20T16:56:31.404Z,72.16
2023-01-20T16:59:01.584Z,72.16
2023-01-20T17:01:30.038Z,72.25
2023-01-20T17:04:02.679Z,71.95
2023-01-20T17:06:33.567Z,72.00
2023-01-20T17:09:04.122Z,71.91
2023-01-20T17:11:37.982Z,71.97
2023-01-20T17:14:09.578Z,71.98
2023-01-20T17:16:37.915Z,71.97
2023-01-20T17:19:05.855Z,72.25
2023-01-20T17:21:37.746Z,72.24
2023-01-20T17:24:05.822Z,72.21
2023-01-20T17:26:33.386Z,71.91
2023-01-20T17:29:03.440Z,72.00
2023-01-20T17:31:36.615Z,72.29
2023-01-20T17:34:07.393Z,72.14
2023-01-20T17:36:35.004Z,72.10
2023-01-20T17:39:03.906Z,71.91
2023-01-20T17:41:31.068Z,71.94
2023-01-20T17:43:57.922Z,72.24
2023-01-20T17:46:28.936Z,71.88
2023-01-20T17:49:04.782Z,72.10
2023-01-20T17:51:31.645Z,72.08
2023-01-20T17:54:01.856Z,72.31
2023-01-20T17:56:30.413Z,72.23
2023-01-20T17:58:57.368Z,72.48
2023-01-20T18:01:27.912Z,72.13
2023-01-20T18:03:58.158Z,72.19
2023-01-20T18:06:26.905Z,72.60
2023-01-20T18:09:00.470Z,72.39
2023-01-20T18:11:30.965Z,72.37
2023-01-20T18:14:00.282Z,72.72
2023-01-20T18:16:31.067Z,72.67
2023-01-20T18:19:01.190Z,71.94
2023-01-20T18:21:37.097Z,71.88
2023-01-20T18:24:07.340Z,72.41
2023-01-20T18:26:37.487Z,72.84
2023-01-20T18:29:08.185Z,73.03
2023-01-20T18:31:35.914Z,72.72
2023-01-20T18:34:06.361Z,73.58
2023-01-20T18:36:39.892Z,73.28
2023-01-20T18:39:17.350Z,73.78
2023-01-20T18:41:44.737Z,73.34
2023-01-20T18:44:11.762Z,73.16
2023-01-20T18:46:38.789Z,72.58
2023-01-20T18:49:09.402Z,72.75
2023-01-20T18:51:36.632Z,72.46
2023-01-20T18:54:11.891Z,73.11
2023-01-20T18:56:39.364Z,72.48
2023-01-20T18:59:07.382Z,73.00
2023-01-20T19:01:37.893Z,73.07
2023-01-20T19:04:06.547Z,73.00
2023-01-20T19:06:40.669Z,73.06
2023-01-20T19:09:08.273Z,72.82
2023-01-20T19:11:39.585Z,72.76
2023-01-20T19:14:11.667Z,73.22
2023-01-20T19:16:42.112Z,73.05
2023-01-20T19:19:11.705Z,72.84
2023-01-20T19:21:38.815Z,72.95
2023-01-20T19:24:07.893Z,72.89
2023-01-20T19:26:38.899Z,73.19
2023-01-20T19:29:08.847Z,72.70
2023-01-20T19:31:39.359Z,72.76
2023-01-20T19:34:08.132Z,72.90
2023-01-20T19:36:35.776Z,72.68
2023-01-20T19:39:03.135Z,72.44
2023-01-20T19:41:35.925Z,72.95
2023-01-20T19:44:06.492Z,72.89
2023-01-20T19:46:36.627Z,72.81
2023-01-20T19:49:03.668Z,72.76
2023-01-20T19:51:31.423Z,72.96
2023-01-20T19:54:00.723Z,72.82
2023-01-20T19:56:31.792Z,73.20
2023-01-20T19:59:02.897Z,73.27
2023-01-20T20:01:36.799Z,73.18
2023-01-20T20:04:10.247Z,72.97
2023-01-20T20:06:48.552Z,72.87
2023-01-20T20:09:23.390Z,72.75
2023-01-20T20:11:50.451Z,72.55
2023-01-20T20:14:20.162Z,72.91
2023-01-20T20:16:47.679Z,72.88
2023-01-20T20:19:18.882Z,72.71
2023-01-20T20:21:46.274Z,72.93
2023-01-20T20:24:15.488Z,72.77
2023-01-20T20:26:44.525Z,72.63
2023-01-20T20:29:12.838Z,72.83
2023-01-20T20:31:40.493Z,72.42
2023-01-20T20:34:12.866Z,72.34
2023-01-20T20:36:40.052Z,72.70
2023-01-20T20:39:07.923Z,72.23
2023-01-20T20:41:36.588Z,71.80
2023-01-20T20:44:04.331Z,72.00
2023-01-20T20:46:31.620Z,72.48
2023-01-20T20:49:00.863Z,72.72
2023-01-20T20:51:33.995Z,72.67
2023-01-20T20:54:02.548Z,72.28
2023-01-20T20:56:33.541Z,72.44
2023-01-20T20:59:03.436Z,72.41
2023-01-20T21:01:34.553Z,72.48
2023-01-20T21:04:03.282Z,72.11
2023-01-20T21:06:31.273Z,72.70
2023-01-20T21:09:01.459Z,73.22
2023-01-20T21:11:29.177Z,73.28
2023-01-20T21:13:56.373Z,72.96
2023-01-20T21:16:24.748Z,73.05
2023-01-20T21:18:59.419Z,73.19
2023-01-20T21:21:28.690Z,72.93
2023-01-20T21:23:57.396Z,72.95
2023-01-20T21:26:29.603Z,72.79
2023-01-20T21:28:57.595Z,72.99
2023-01-20T21:31:26.812Z,74.79
2023-01-20T21:34:00.228Z,73.72
2023-01-20T21:36:29.477Z,73.49
2023-01-20T21:38:56.313Z,73.07
2023-01-20T21:41:23.244Z,72.91
2023-01-20T21:44:08.967Z,72.33
2023-01-20T21:46:40.612Z,72.30
2023-01-20T21:49:27.370Z,71.96
2023-01-20T21:52:14.627Z,71.98
2023-01-20T21:54:42.042Z,72.40
2023-01-20T21:57:09.237Z,72.06
2023-01-20T21:59:36.347Z,72.20
2023-01-20T22:02:03.197Z,72.49
2023-01-20T22:04:30.095Z,72.05
2023-01-20T22:06:56.987Z,71.88
2023-01-20T22:09:23.806Z,71.90
2023-01-20T22:11:50.727Z,72.20
2023-01-20T22:14:17.903Z,72.49
2023-01-20T22:16:44.850Z,72.89
2023-01-20T22:19:16.063Z,72.53
2023-01-20T22:21:43.090Z,72.44
2023-01-20T22:24:11.034Z,72.95
2023-01-20T22:26:39.033Z,72.89
2023-01-20T22:29:06.328Z,72.91
2023-01-20T22:31:34.357Z,73.08
2023-01-20T22:34:04.418Z,72.63
2023-01-20T22:36:32.083Z,72.35
2023-01-20T22:38:58.963Z,72.74
2023-01-20T22:41:26.264Z,72.97
2023-01-20T22:43:53.589Z,73.17
2023-01-20T22:46:22.676Z,72.99
2023-01-20T22:48:49.648Z,72.88
2023-01-20T22:51:25.511Z,72.70
2023-01-20T22:54:00.713Z,72.93
2023-01-20T22:56:32.440Z,72.60
2023-01-20T22:59:00.200Z,72.80
2023-01-20T23:01:30.919Z,73.06
2023-01-20T23:04:00.692Z,72.39
2023-01-20T23:06:30.554Z,72.54
2023-01-20T23:08:57.376Z,72.63
2023-01-20T23:11:24.326Z,72.61
2023-01-20T23:13:52.335Z,73.07
2023-01-20T23:16:24.872Z,72.95
2023-01-20T23:18:52.034Z,73.05
2023-01-20T23:21:20.125Z,72.73
2023-01-20T23:23:54.115Z,72.75
2023-01-20T23:26:24.324Z,72.91
2023-01-20T23:28:52.787Z,73.06
2023-01-20T23:31:20.598Z,72.65
2023-01-20T23:33:47.734Z,73.43
2023-01-20T23:36:24.487Z,73.18
2023-01-20T23:38:54.534Z,72.99
2023-01-20T23:41:21.528Z,73.35
2023-01-20T23:43:48.692Z,72.98
2023-01-20T23:46:15.533Z,72.79
2023-01-20T23:48:44.859Z,72.97
2023-01-20T23:51:11.729Z,72.52
2023-01-20T23:53:40.424Z,72.53
2023-01-20T23:56:24.087Z,72.73
2023-01-20T23:58:51.812Z,72.51
